EFHK/HEL METAR and TAF weather

Enter ICAO airport designator
Station Type Date Time Source
EFHK METAR 2019/04/22 23:50 UTC NOAA

EFHK 222350Z 22004KT CAVOK 06/02 Q1028 NOSIG


Station Type Date Time Source
EFHK Decoded METAR 2019/04/22 23:50 UTC NOAA

Helsinki-Vantaa, Finland (EFHK) 60-19N 024-58E 56M
Apr 22, 2019 - 07:50 PM EDT / 2019.04.22 2350 UTC
Wind: from the SW (220 degrees) at 5 MPH (4 KT):0
Visibility: greater than 7 mile(s):0
Temperature: 42 F (6 C)
Dew Point: 35 F (2 C)
Relative Humidity: 75%
Pressure (altimeter): 30.36 in. Hg (1028 hPa)
ob: EFHK 222350Z 22004KT CAVOK 06/02 Q1028 NOSIG
cycle: 0

Station Type Date Time Source
EFHK TAF 2019/04/22 21:42 UTC NOAA

TAF TAF EFHK 222023Z 2221/2321 23006KT CAVOK

Example: see airport list